Norway, Oregon
Current Conditions -  °F | °C
As of 3:15 PM on Saturday 25 Oct 2014 (Local Time) from KOTH Reporting Station
Overcast Overcast  
Wind Chill: 55°   Ceiling: 2000
Heat Index: 55°   Visibility: 2.5mi
Dew Point: 55°   Wind: 23mph
Humidity: 100%   Direction: 250°WSW
Pressure: 29.71"   Gusts: 38mph
Location:  43.1°N, 124.16°W
Report Text: KOTH 252215Z 25020G33KT 2 1/2SM SCT015 BKN020 OVC035 13/13 A2971 RMK AO1 -RA P0001
Loading
Personal Weather Stations






























Interactive Weather Map
Tropical Storm Tracking
New forecast layout! Learn more

10-Day Weather Forecast

Advertisements
Track Severe Weather on mobile